Peru, IL

8:13 AM CDT on October 20, 2017 (GMT -0500)
Illinois Valley Regional-Duncan

Weather History for KVYS - December, 2014

Change the Weather History Date:

Sunday, December 14, 2014

  Actual Average Record
Temperature  
Mean Temperature 46 °F -  
Max Temperature 50 °F 36 °F 64 °F (1975)
Min Temperature 41 °F 20 °F -8 °F (1989)
Degree Days  
Heating Degree Days 20    
Moisture  
Dew Point 45 °F    
Average Humidity 97    
Maximum Humidity 100    
Minimum Humidity 92    
Precipitation  
Precipitation 0.00 in - - ()
Sea Level Pressure  
Sea Level Pressure 30.06 in    
Wind  
Wind Speed 9 mph (South)    
Max Wind Speed 14 mph    
Max Gust Speed 22 mph    
Visibility 2 miles    
Events Fog    
Averages and records for this station are not official NWS values.
T = Trace of Precipitation, MM = Missing Value Source: NWS Daily Summary

Daily Weather History Graph

Daily Weather History Graph

Search for Another Location

Airport or City:

Trip Planner

Search our weather history database for the weather conditions in past years. The results will help you decide how hot, cold, wet, or windy it might be!

Date:

Astronomy

Dec. 14, 2014 Rise Set
Actual Time 7:14 AM CST 4:27 PM CST
Civil Twilight 6:43 AM CST 4:59 PM CST
Nautical Twilight 6:08 AM CST 5:33 PM CST
Astronomical Twilight 5:35 AM CST 6:07 PM CST
Moon No Moon Rise 12:02 PM CST (12/14)
Length of Visible Light 10h 15m
Length of Day
9h 13m
Waning Gibbous, 48% of the Moon is Illuminated
Dec 14
Waning Gibbous
Dec 21
New
Dec 28
First Quarter
Jan 4
Full
Jan 13
Last Quarter

Hourly Weather History & Observations

Time (CST) Temp. Windchill Dew Point Humidity Pressure Visibility Wind Dir Wind Speed Gust Speed Precip Events Conditions
12:15 AM 45.9 °F 42.3 °F 43.7 °F 92% 30.09 in 5.0 mi SSW 6.9 mph - N/A   Overcast
12:35 AM 44.8 °F 39.9 °F 42.6 °F 92% 30.09 in 4.0 mi SSW 9.2 mph - N/A   Mostly Cloudy
12:55 AM 43.9 °F 38.3 °F 42.1 °F 93% 30.09 in 4.0 mi SSW 10.4 mph - N/A   Clear
1:15 AM 44.4 °F 39.5 °F 42.6 °F 93% 30.10 in 4.0 mi SW 9.2 mph - N/A   Clear
1:35 AM 43.5 °F 38.3 °F 41.9 °F 94% 30.09 in 4.0 mi SW 9.2 mph - N/A   Clear
1:55 AM 42.8 °F 37.5 °F 41.0 °F 93% 30.10 in 3.0 mi SW 9.2 mph - N/A   Clear
2:15 AM 42.3 °F 37.3 °F 41.0 °F 95% 30.10 in 3.0 mi SW 8.1 mph - N/A   Clear
2:35 AM 41.4 °F 36.2 °F 40.1 °F 95% 30.10 in 2.5 mi SW 8.1 mph - N/A   Scattered Clouds
2:55 AM 44.4 °F 38.6 °F 43.5 °F 97% 30.10 in 4.0 mi WSW 11.5 mph - N/A   Overcast
3:15 AM 44.1 °F 37.4 °F 42.8 °F 95% 30.11 in 3.0 mi WSW 13.8 mph 21.9 mph N/A   Overcast
3:35 AM 43.7 °F 38.6 °F 42.4 °F 95% 30.10 in 2.0 mi SW 9.2 mph - N/A   Overcast
3:55 AM 43.7 °F 39.1 °F 42.6 °F 96% 30.10 in 1.8 mi SSW 8.1 mph - N/A   Overcast
4:15 AM 43.7 °F 40.3 °F 42.8 °F 97% 30.10 in 1.2 mi SSW 5.8 mph - N/A   Overcast
4:35 AM 43.7 °F 40.3 °F 42.8 °F 97% 30.10 in 1.0 mi South 5.8 mph - N/A   Overcast
4:55 AM 43.9 °F 39.9 °F 43.0 °F 97% 30.10 in 1.0 mi South 6.9 mph - N/A   Overcast
5:15 AM 43.9 °F 39.9 °F 43.0 °F 97% 30.10 in 1.2 mi South 6.9 mph - N/A   Overcast
5:35 AM 44.2 °F 40.3 °F 43.3 °F 97% 30.10 in 1.5 mi South 6.9 mph - N/A   Overcast
5:55 AM 44.4 °F 41.2 °F 43.7 °F 97% 30.10 in 1.8 mi South 5.8 mph - N/A   Overcast
6:15 AM 44.6 °F 40.2 °F 43.9 °F 97% 30.10 in 2.5 mi South 8.1 mph - N/A   Overcast
6:35 AM 44.6 °F 39.7 °F 43.9 °F 97% 30.10 in 2.0 mi South 9.2 mph - N/A   Overcast
6:55 AM 44.6 °F 40.7 °F 43.9 °F 97% 30.10 in 1.8 mi South 6.9 mph - N/A   Overcast
7:15 AM 44.6 °F 39.2 °F 43.9 °F 97% 30.10 in 1.2 mi South 10.4 mph - N/A   Overcast
7:35 AM 44.6 °F 39.7 °F 43.9 °F 97% 30.09 in 0.8 mi South 9.2 mph - N/A   Overcast
7:55 AM 44.8 °F 40.4 °F 44.1 °F 97% 30.09 in 0.5 mi South 8.1 mph - N/A Fog Fog
8:15 AM 45.0 °F 39.3 °F 44.2 °F 97% 30.08 in 0.5 mi SSE 11.5 mph - N/A Fog Fog
8:35 AM 45.1 °F 39.9 °F 44.6 °F 98% 30.10 in 0.5 mi South 10.4 mph - N/A Fog Fog
8:55 AM 45.5 °F 40.8 °F 44.8 °F 97% 30.10 in 0.5 mi South 9.2 mph - N/A Fog Fog
9:15 AM 45.5 °F 41.3 °F 45.0 °F 98% 30.10 in 0.8 mi South 8.1 mph - N/A   Overcast
9:35 AM 45.9 °F 41.7 °F 45.1 °F 97% 30.10 in 0.8 mi South 8.1 mph - N/A   Overcast
9:55 AM 46.0 °F 41.0 °F 45.5 °F 98% 30.10 in 1.0 mi South 10.4 mph - N/A   Overcast
10:15 AM 46.4 °F 41.1 °F 45.9 °F 98% 30.10 in 1.2 mi South 11.5 mph - N/A   Overcast
10:35 AM 46.8 °F - 46.2 °F 98% 30.10 in 1.2 mi South 10.4 mph - N/A   Overcast
10:55 AM 46.4 °F 41.5 °F 46.4 °F 100% 30.09 in 1.8 mi SSW 10.4 mph - N/A   Overcast
11:15 AM 47.3 °F - 46.4 °F 97% 30.08 in 1.8 mi South 9.2 mph - N/A   Overcast
11:35 AM 47.5 °F - 46.8 °F 97% 30.07 in 1.5 mi South 9.2 mph - N/A   Overcast
11:55 AM 47.8 °F - 47.3 °F 98% 30.06 in 2.0 mi South 9.2 mph - N/A   Overcast
12:15 PM 48.2 °F - 47.3 °F 97% 30.06 in 2.5 mi South 9.2 mph - N/A   Overcast
12:35 PM 48.4 °F - 47.5 °F 97% 30.05 in 2.5 mi South 9.2 mph - N/A   Overcast
12:55 PM 48.6 °F - 47.5 °F 96% 30.05 in 2.5 mi South 11.5 mph - N/A   Overcast
1:15 PM 48.7 °F - 47.5 °F 95% 30.05 in 3.0 mi South 10.4 mph - N/A   Overcast
1:35 PM 49.1 °F - 47.7 °F 95% 30.04 in 3.0 mi South 9.2 mph - N/A   Overcast
1:55 PM 49.1 °F - 47.7 °F 95% 30.03 in 3.0 mi South 9.2 mph - N/A   Overcast
2:15 PM 49.3 °F - 47.7 °F 94% 30.03 in 3.0 mi South 11.5 mph - N/A   Overcast
2:35 PM 50.0 °F - 48.2 °F 94% 30.02 in 2.5 mi SSE 10.4 mph - N/A   Overcast
2:55 PM 48.7 °F - 47.3 °F 95% 30.02 in 2.0 mi South 11.5 mph - N/A   Overcast
3:15 PM 48.6 °F - 47.3 °F 95% 30.02 in 1.5 mi South 6.9 mph - N/A   Overcast
3:35 PM 48.4 °F - 47.3 °F 96% 30.03 in 1.0 mi South 9.2 mph - N/A   Overcast
3:55 PM 48.4 °F - 47.3 °F 96% 30.03 in 0.8 mi South 8.1 mph - N/A   Overcast
4:15 PM 48.2 °F - 46.9 °F 95% 30.03 in 0.8 mi South 9.2 mph - N/A   Overcast
4:35 PM 48.0 °F - 47.1 °F 97% 30.03 in 1.0 mi SSE 10.4 mph - N/A   Overcast
4:55 PM 47.8 °F - 46.9 °F 97% 30.03 in 1.0 mi South 11.5 mph - N/A   Overcast
5:15 PM 47.8 °F - 46.9 °F 97% 30.03 in 1.0 mi South 10.4 mph - N/A   Overcast
5:35 PM 47.5 °F - 46.8 °F 97% 30.03 in 0.8 mi South 9.2 mph - N/A   Overcast
5:55 PM 47.3 °F - 46.4 °F 97% 30.03 in 3.0 mi South 9.2 mph - N/A   Overcast
6:15 PM 47.3 °F - 46.4 °F 97% 30.03 in 1.8 mi South 9.2 mph - N/A   Overcast
6:35 PM 47.3 °F - 46.4 °F 97% 30.03 in 1.0 mi South 13.8 mph - N/A   Overcast
6:55 PM 47.3 °F - 46.4 °F 97% 30.03 in 0.8 mi South 12.7 mph - N/A   Overcast
7:15 PM 46.6 °F - 45.9 °F 97% 30.03 in 0.8 mi South 13.8 mph - N/A   Overcast
7:35 PM 46.4 °F 40.4 °F 45.7 °F 97% 30.02 in 0.8 mi South 13.8 mph - N/A   Overcast
7:55 PM 46.4 °F 40.7 °F 45.7 °F 97% 30.03 in 1.0 mi South 12.7 mph - N/A   Overcast
8:15 PM 46.4 °F 40.7 °F 45.7 °F 97% 30.02 in 1.2 mi South 12.7 mph - N/A   Overcast
8:35 PM 46.4 °F 41.1 °F 45.9 °F 98% 30.02 in 1.2 mi South 11.5 mph - N/A   Overcast
8:55 PM 46.4 °F 41.5 °F 45.9 °F 98% 30.02 in 1.0 mi South 10.4 mph - N/A   Overcast
9:15 PM 46.4 °F 40.7 °F 45.9 °F 98% 30.02 in 1.0 mi South 12.7 mph 17.3 mph N/A   Overcast
9:35 PM 46.4 °F 40.7 °F 45.7 °F 97% 30.01 in 1.0 mi South 12.7 mph - N/A   Overcast
9:55 PM 46.4 °F 41.9 °F 45.7 °F 97% 30.00 in 1.0 mi SSE 9.2 mph - N/A   Overcast
10:15 PM 46.4 °F 41.5 °F 45.7 °F 97% 30.01 in 1.0 mi South 10.4 mph - N/A   Overcast
10:35 PM 46.0 °F 41.4 °F 45.5 °F 98% 30.01 in 1.0 mi South 9.2 mph - N/A   Overcast
10:55 PM 45.9 °F 40.4 °F 45.5 °F 99% 30.01 in 0.8 mi South 11.5 mph - N/A   Overcast
11:15 PM 45.9 °F 40.4 °F 45.5 °F 99% 30.00 in 0.5 mi SSE 11.5 mph - N/A Fog Fog
11:35 PM 45.9 °F 40.8 °F 45.5 °F 99% 30.00 in 0.8 mi South 10.4 mph - N/A   Overcast
11:55 PM 45.9 °F 40.0 °F 45.5 °F 99% 29.99 in 0.5 mi SSE 12.7 mph 17.3 mph N/A Fog Fog